Terminal Aerodrome Forecast
Issued by NWS

Home | Current Version | Previous Version | Text Only | Print | Product List | Glossary On
Versions: 1 2 3 4 5 6 7 8 9 10 11 12 13 14
000
FTUS43 KICT 210500
TAFCNU
TAF
KCNU 210520Z 2106/2206 16008KT P6SM BKN100
     FM211000 20010KT P6SM BKN025
     FM211600 23010KT P6SM SCT025 BKN100
     FM212100 28010KT P6SM SCT100
     FM220000 35010KT P6SM SKC=

USA.gov is the U.S. government's official web portal to all federal, state and local government web resources and services.